createdAt,value
2022-10-26T00:01:36.610Z,17.27
2022-10-26T00:04:05.325Z,17.26
2022-10-26T00:06:33.674Z,17.23
2022-10-26T00:09:02.006Z,17.21
2022-10-26T00:11:30.474Z,17.19
2022-10-26T00:13:58.814Z,17.16
2022-10-26T00:16:29.437Z,17.13
2022-10-26T00:18:57.935Z,17.14
2022-10-26T00:21:26.292Z,17.12
2022-10-26T00:23:54.643Z,17.12
2022-10-26T00:26:23.071Z,17.10
2022-10-26T00:28:53.922Z,17.09
2022-10-26T00:31:22.600Z,17.07
2022-10-26T00:33:55.844Z,17.06
2022-10-26T00:36:25.593Z,17.06
2022-10-26T00:38:56.113Z,17.05
2022-10-26T00:41:27.451Z,17.04
2022-10-26T00:43:56.611Z,17.03
2022-10-26T00:46:29.054Z,16.99
2022-10-26T00:49:03.100Z,16.98
2022-10-26T00:51:36.800Z,16.94
2022-10-26T00:54:12.570Z,16.90
2022-10-26T00:56:42.346Z,16.90
2022-10-26T00:59:13.664Z,16.86
2022-10-26T01:01:45.845Z,16.85
2022-10-26T01:04:16.926Z,16.84
2022-10-26T01:06:46.374Z,16.83
2022-10-26T01:09:15.244Z,16.82
2022-10-26T01:11:43.597Z,16.79
2022-10-26T01:14:13.869Z,16.76
2022-10-26T01:16:58.483Z,16.74
2022-10-26T01:20:18.054Z,16.67
2022-10-26T01:22:58.003Z,16.67
2022-10-26T01:25:50.316Z,16.62
2022-10-26T01:28:39.501Z,16.59
2022-10-26T01:31:14.380Z,16.56
2022-10-26T01:33:47.062Z,16.54
2022-10-26T01:36:23.611Z,16.52
2022-10-26T01:39:01.651Z,16.50
2022-10-26T01:41:35.471Z,16.47
2022-10-26T01:44:07.676Z,16.47
2022-10-26T01:46:42.291Z,16.47
2022-10-26T01:49:13.649Z,16.45
2022-10-26T01:51:46.607Z,16.45
2022-10-26T01:54:14.982Z,16.45
2022-10-26T01:56:47.760Z,16.42
2022-10-26T01:59:30.254Z,16.43
2022-10-26T02:02:50.873Z,16.40
2022-10-26T02:05:49.667Z,16.39
2022-10-26T02:08:44.632Z,16.38
2022-10-26T02:11:24.989Z,16.37
2022-10-26T02:13:58.862Z,16.37
2022-10-26T02:16:34.154Z,16.36
2022-10-26T02:19:10.805Z,16.36
2022-10-26T02:21:45.445Z,16.36
2022-10-26T02:24:17.120Z,16.36
2022-10-26T02:26:49.849Z,16.35
2022-10-26T02:29:21.719Z,16.32
2022-10-26T02:31:52.641Z,16.32
2022-10-26T02:34:27.009Z,16.30
2022-10-26T02:36:59.034Z,16.29
2022-10-26T02:39:29.729Z,16.25
2022-10-26T02:41:59.385Z,16.22
2022-10-26T02:44:31.410Z,16.18
2022-10-26T02:47:00.768Z,16.17
2022-10-26T02:49:31.099Z,16.16
2022-10-26T02:52:04.914Z,16.15
2022-10-26T02:54:43.487Z,16.14
2022-10-26T02:57:17.151Z,16.14
2022-10-26T02:59:48.622Z,16.14
2022-10-26T03:02:18.750Z,16.15
2022-10-26T03:04:50.615Z,16.15
2022-10-26T03:07:23.644Z,16.15
2022-10-26T03:09:52.372Z,16.15
2022-10-26T03:12:21.121Z,16.16
2022-10-26T03:14:49.452Z,16.16
2022-10-26T03:17:17.785Z,16.16
2022-10-26T03:19:47.575Z,16.16
2022-10-26T03:22:15.942Z,16.16
2022-10-26T03:24:44.298Z,16.16
2022-10-26T03:27:12.691Z,16.17
2022-10-26T03:29:41.044Z,16.17
2022-10-26T03:32:09.506Z,16.16
2022-10-26T03:34:37.858Z,16.17
2022-10-26T03:37:07.595Z,16.17
2022-10-26T03:39:35.951Z,16.16
2022-10-26T03:42:04.437Z,16.16
2022-10-26T03:44:32.839Z,16.14
2022-10-26T03:47:01.192Z,16.14
2022-10-26T03:49:29.521Z,16.14
2022-10-26T03:51:57.878Z,16.14
2022-10-26T03:54:27.582Z,16.12
2022-10-26T03:56:55.950Z,16.12
2022-10-26T03:59:24.411Z,16.11
2022-10-26T04:01:55.508Z,16.11
2022-10-26T04:04:26.364Z,16.10
2022-10-26T04:06:54.770Z,16.11
2022-10-26T04:09:23.096Z,16.10
2022-10-26T04:11:52.847Z,16.12
2022-10-26T04:14:21.211Z,16.12
2022-10-26T04:16:49.676Z,16.13
2022-10-26T04:19:18.037Z,16.15
2022-10-26T04:21:46.392Z,16.16
2022-10-26T04:24:15.382Z,16.17
2022-10-26T04:26:45.218Z,16.18
2022-10-26T04:29:15.158Z,16.20
2022-10-26T04:34:16.890Z,16.23
2022-10-26T04:36:45.282Z,16.24
2022-10-26T04:39:13.618Z,16.25
2022-10-26T04:41:41.975Z,16.27
2022-10-26T04:44:10.339Z,16.29
2022-10-26T04:46:40.153Z,16.32
2022-10-26T04:49:08.603Z,16.34
2022-10-26T04:51:36.944Z,16.36
2022-10-26T04:54:05.813Z,16.37
2022-10-26T04:56:34.270Z,16.39
2022-10-26T04:59:02.914Z,16.39
2022-10-26T05:01:32.955Z,16.41
2022-10-26T05:04:02.831Z,16.42
2022-10-26T05:06:31.713Z,16.43
2022-10-26T05:09:00.024Z,16.44
2022-10-26T05:11:28.381Z,16.45
2022-10-26T05:13:56.708Z,16.45
2022-10-26T05:16:25.139Z,16.47
2022-10-26T05:18:53.595Z,16.48
2022-10-26T05:21:23.389Z,16.48
2022-10-26T05:23:53.913Z,16.48
2022-10-26T05:26:22.503Z,16.48
2022-10-26T05:28:52.260Z,16.47
2022-10-26T05:31:20.733Z,16.49
2022-10-26T05:33:51.405Z,16.50
2022-10-26T05:36:20.290Z,16.54
2022-10-26T05:38:50.060Z,16.58
2022-10-26T05:41:18.385Z,16.62
2022-10-26T05:43:49.059Z,16.67
2022-10-26T05:46:17.634Z,16.74
2022-10-26T05:48:45.990Z,16.83
2022-10-26T05:51:14.381Z,16.91
2022-10-26T05:53:42.738Z,16.98
2022-10-26T05:56:20.844Z,17.03
2022-10-26T05:58:50.273Z,17.11
2022-10-26T06:01:30.545Z,17.18
2022-10-26T06:04:18.734Z,17.26
2022-10-26T06:06:51.294Z,17.33
2022-10-26T06:09:20.497Z,17.40
2022-10-26T06:11:51.118Z,17.47
2022-10-26T06:14:20.431Z,17.54
2022-10-26T06:17:07.808Z,17.62
2022-10-26T06:19:53.139Z,17.68
2022-10-26T06:22:49.102Z,17.73
2022-10-26T06:25:29.704Z,17.81
2022-10-26T06:28:14.098Z,17.86
2022-10-26T06:30:43.805Z,17.95
2022-10-26T06:33:28.383Z,17.99
2022-10-26T06:36:11.634Z,18.00
2022-10-26T06:38:45.355Z,18.05
2022-10-26T06:41:16.383Z,18.11
2022-10-26T06:43:47.424Z,18.16
2022-10-26T06:46:32.466Z,18.21
2022-10-26T06:49:11.068Z,18.29
2022-10-26T06:51:48.256Z,18.36
2022-10-26T06:54:24.917Z,18.43
2022-10-26T06:56:54.557Z,18.50
2022-10-26T06:59:38.703Z,18.51
2022-10-26T07:02:07.553Z,18.58
2022-10-26T07:04:36.132Z,18.62
2022-10-26T07:07:04.988Z,18.66
2022-10-26T07:09:33.377Z,18.70
2022-10-26T07:12:01.953Z,18.71
2022-10-26T07:14:31.703Z,18.74
2022-10-26T07:17:00.080Z,18.78
2022-10-26T07:19:28.593Z,18.82
2022-10-26T07:21:59.262Z,18.86
2022-10-26T07:24:27.785Z,18.90
2022-10-26T07:26:56.871Z,18.95
2022-10-26T07:29:26.628Z,18.99
2022-10-26T07:31:56.467Z,19.04
2022-10-26T07:34:24.910Z,19.08
2022-10-26T07:36:53.301Z,19.11
2022-10-26T07:39:21.715Z,19.15
2022-10-26T07:41:50.154Z,19.19
2022-10-26T07:44:19.148Z,19.21
2022-10-26T07:46:47.546Z,19.25
2022-10-26T07:49:19.420Z,19.29
2022-10-26T07:51:48.194Z,19.36
2022-10-26T07:54:16.578Z,19.44
2022-10-26T07:56:44.952Z,19.53
2022-10-26T07:59:13.952Z,19.60
2022-10-26T08:01:42.372Z,19.64
2022-10-26T08:04:11.121Z,19.62
2022-10-26T08:06:40.936Z,19.59
2022-10-26T08:09:09.293Z,19.54
2022-10-26T08:11:37.969Z,19.50
2022-10-26T08:14:06.616Z,19.51
2022-10-26T08:16:35.300Z,19.53
2022-10-26T08:19:03.687Z,19.54
2022-10-26T08:21:47.172Z,19.56
2022-10-26T08:24:16.942Z,19.54
2022-10-26T08:26:45.321Z,19.54
2022-10-26T08:29:13.708Z,19.53
2022-10-26T08:31:42.113Z,19.52
2022-10-26T08:34:10.786Z,19.51
2022-10-26T08:36:39.167Z,19.49
2022-10-26T08:39:07.742Z,19.43
2022-10-26T08:41:42.136Z,19.37
2022-10-26T08:44:26.049Z,19.34
2022-10-26T08:46:59.607Z,19.35
2022-10-26T08:49:32.284Z,19.35
2022-10-26T08:52:03.977Z,19.40
2022-10-26T08:54:39.985Z,19.47
2022-10-26T08:57:20.338Z,19.52
2022-10-26T08:59:55.666Z,19.56
2022-10-26T09:02:24.882Z,19.63
2022-10-26T09:04:56.183Z,19.65
2022-10-26T09:07:51.491Z,19.62
2022-10-26T09:10:41.106Z,19.59
2022-10-26T09:13:24.826Z,19.63
2022-10-26T09:16:06.444Z,19.65
2022-10-26T09:18:49.818Z,19.70
2022-10-26T09:21:36.287Z,19.73
2022-10-26T09:24:13.485Z,19.72
2022-10-26T09:26:55.758Z,19.70
2022-10-26T09:29:32.931Z,19.73
2022-10-26T09:32:03.048Z,19.78
2022-10-26T09:34:40.073Z,19.82
2022-10-26T09:37:19.407Z,19.88
2022-10-26T09:39:56.171Z,19.93
2022-10-26T09:42:33.571Z,19.99
2022-10-26T09:45:13.061Z,19.96
2022-10-26T09:47:46.287Z,19.99
2022-10-26T09:50:25.180Z,20.03
2022-10-26T09:52:53.577Z,20.10
2022-10-26T09:55:23.035Z,20.14
2022-10-26T09:57:56.767Z,20.20
2022-10-26T10:00:28.865Z,20.27
2022-10-26T10:02:59.588Z,20.34
2022-10-26T10:05:50.242Z,20.39
2022-10-26T10:08:22.882Z,20.44
2022-10-26T10:11:04.780Z,20.42
2022-10-26T10:13:35.579Z,20.39
2022-10-26T10:16:11.587Z,20.40
2022-10-26T10:18:42.658Z,20.44
2022-10-26T10:21:12.143Z,20.50
2022-10-26T10:23:52.093Z,20.54
2022-10-26T10:26:20.856Z,20.60
2022-10-26T10:28:59.877Z,20.60
2022-10-26T10:31:34.170Z,20.58
2022-10-26T10:34:16.177Z,20.57
2022-10-26T10:36:44.701Z,20.53
2022-10-26T10:39:38.213Z,20.47
2022-10-26T10:42:18.456Z,20.48
2022-10-26T10:44:48.522Z,20.49
2022-10-26T10:47:24.368Z,20.48
2022-10-26T10:49:56.999Z,20.49
2022-10-26T10:52:29.540Z,20.54
2022-10-26T10:55:18.828Z,20.58
2022-10-26T10:58:05.822Z,20.69
2022-10-26T11:00:39.118Z,20.84
2022-10-26T11:03:28.311Z,20.98
2022-10-26T11:06:09.500Z,21.10
2022-10-26T11:08:45.894Z,21.18
2022-10-26T11:11:19.852Z,21.26
2022-10-26T11:13:54.624Z,21.37
2022-10-26T11:16:27.696Z,21.44
2022-10-26T11:19:03.154Z,21.48
2022-10-26T11:21:33.746Z,21.51
2022-10-26T11:24:16.548Z,21.54
2022-10-26T11:26:52.737Z,21.61
2022-10-26T11:29:45.936Z,21.66
2022-10-26T11:32:21.481Z,21.73
2022-10-26T11:34:59.595Z,21.81
2022-10-26T11:37:37.670Z,21.91
2022-10-26T11:40:24.272Z,22.00
2022-10-26T11:43:04.930Z,22.12
2022-10-26T11:45:39.132Z,22.23
2022-10-26T11:48:18.793Z,22.37
2022-10-26T11:50:54.503Z,22.48
2022-10-26T11:53:27.488Z,22.61
2022-10-26T11:55:57.761Z,22.72
2022-10-26T11:58:28.490Z,22.82
2022-10-26T12:01:02.480Z,22.88
2022-10-26T12:03:36.465Z,22.90
2022-10-26T12:06:06.710Z,22.91
2022-10-26T12:08:41.874Z,22.86
2022-10-26T12:11:21.509Z,22.80
2022-10-26T12:13:56.374Z,22.76
2022-10-26T12:16:44.274Z,22.71
2022-10-26T12:19:21.641Z,22.67
2022-10-26T12:21:53.246Z,22.63
2022-10-26T12:24:33.596Z,22.58
2022-10-26T12:27:03.708Z,22.59
2022-10-26T12:29:44.106Z,22.56
2022-10-26T12:32:55.177Z,22.58
2022-10-26T12:35:42.335Z,22.63
2022-10-26T12:39:01.044Z,22.64
2022-10-26T12:41:30.377Z,22.71
2022-10-26T12:44:06.186Z,22.74
2022-10-26T12:46:45.558Z,22.77
2022-10-26T12:49:58.500Z,22.82
2022-10-26T12:52:53.120Z,22.92
2022-10-26T12:56:05.287Z,22.95
2022-10-26T12:59:10.969Z,23.05
2022-10-26T13:02:27.362Z,23.08
2022-10-26T13:05:49.801Z,23.06
2022-10-26T13:08:18.637Z,23.05
2022-10-26T13:11:05.742Z,22.95
2022-10-26T13:13:36.640Z,22.91
2022-10-26T13:16:06.124Z,22.79
2022-10-26T13:18:44.001Z,22.67
2022-10-26T13:21:15.201Z,22.61
2022-10-26T13:23:47.358Z,22.55
2022-10-26T13:26:19.899Z,22.50
2022-10-26T13:28:53.151Z,22.45
2022-10-26T13:31:58.251Z,22.35
2022-10-26T13:34:31.187Z,22.30
2022-10-26T13:37:17.065Z,22.23
2022-10-26T13:39:49.216Z,22.20
2022-10-26T13:42:22.310Z,22.18
2022-10-26T13:44:58.407Z,22.14
2022-10-26T13:47:33.114Z,22.10
2022-10-26T13:50:07.578Z,22.06
2022-10-26T13:52:41.047Z,22.04
2022-10-26T13:55:19.104Z,21.98
2022-10-26T13:58:07.178Z,21.92
2022-10-26T14:00:35.647Z,21.86
2022-10-26T14:03:15.543Z,21.78
2022-10-26T14:05:48.730Z,21.74
2022-10-26T14:08:20.687Z,21.68
2022-10-26T14:10:55.116Z,21.62
2022-10-26T14:13:27.759Z,21.60
2022-10-26T14:15:58.847Z,21.55
2022-10-26T14:18:30.718Z,21.53
2022-10-26T14:21:03.623Z,21.46
2022-10-26T14:23:38.269Z,21.42
2022-10-26T14:26:07.192Z,21.39
2022-10-26T14:28:50.581Z,21.32
2022-10-26T14:31:29.045Z,21.27
2022-10-26T14:34:00.102Z,21.24
2022-10-26T14:36:32.996Z,21.19
2022-10-26T14:39:06.725Z,21.14
2022-10-26T14:41:37.401Z,21.10
2022-10-26T14:44:20.144Z,21.06
2022-10-26T14:46:49.174Z,21.02
2022-10-26T14:49:22.840Z,20.99
2022-10-26T14:51:57.610Z,20.97
2022-10-26T14:54:28.899Z,20.94
2022-10-26T14:56:58.426Z,20.93
2022-10-26T14:59:31.656Z,20.88
2022-10-26T15:02:04.446Z,20.88
2022-10-26T15:04:36.849Z,20.83
2022-10-26T15:07:18.753Z,20.82
2022-10-26T15:09:49.105Z,20.80
2022-10-26T15:12:26.735Z,20.75
2022-10-26T15:14:57.994Z,20.73
2022-10-26T15:17:34.669Z,20.68
2022-10-26T15:20:07.913Z,20.62
2022-10-26T15:22:36.609Z,20.60
2022-10-26T15:25:08.530Z,20.55
2022-10-26T15:27:37.096Z,20.53
2022-10-26T15:30:21.626Z,20.46
2022-10-26T15:32:51.227Z,20.47
2022-10-26T15:35:34.682Z,20.42
2022-10-26T15:38:03.211Z,20.42
2022-10-26T15:40:33.244Z,20.38
2022-10-26T15:43:02.675Z,20.36
2022-10-26T15:45:49.170Z,20.30
2022-10-26T15:48:24.302Z,20.28
2022-10-26T15:50:52.874Z,20.27
2022-10-26T15:53:24.271Z,20.23
2022-10-26T15:55:55.700Z,20.22
2022-10-26T15:58:24.978Z,20.21
2022-10-26T16:00:55.709Z,20.20
2022-10-26T16:03:26.328Z,20.19
2022-10-26T16:05:59.648Z,20.18
2022-10-26T16:08:31.201Z,20.17
2022-10-26T16:10:59.883Z,20.18
2022-10-26T16:13:28.457Z,20.18
2022-10-26T16:15:58.903Z,20.14
2022-10-26T16:18:27.898Z,20.14
2022-10-26T16:20:56.493Z,20.13
2022-10-26T16:23:25.107Z,20.12
2022-10-26T16:25:53.835Z,20.09
2022-10-26T16:28:23.065Z,20.08
2022-10-26T16:30:51.426Z,20.07
2022-10-26T16:33:22.034Z,20.04
2022-10-26T16:35:58.706Z,20.01
2022-10-26T16:38:28.891Z,20.01
2022-10-26T16:41:03.544Z,20.01
2022-10-26T16:43:34.134Z,20.02
2022-10-26T16:46:08.982Z,20.01
2022-10-26T16:48:41.216Z,19.99
2022-10-26T16:51:13.028Z,19.99
2022-10-26T16:53:42.539Z,19.99
2022-10-26T16:56:13.690Z,19.98
2022-10-26T16:58:43.044Z,19.96
2022-10-26T17:01:14.091Z,19.96
2022-10-26T17:03:44.289Z,19.95
2022-10-26T17:06:15.008Z,19.94
2022-10-26T17:08:45.488Z,19.95
2022-10-26T17:11:18.933Z,19.94
2022-10-26T17:13:48.856Z,19.95
2022-10-26T17:16:21.118Z,19.94
2022-10-26T17:18:53.170Z,19.94
2022-10-26T17:21:33.343Z,19.93
2022-10-26T17:24:05.157Z,19.95
2022-10-26T17:26:35.168Z,19.96
2022-10-26T17:29:04.873Z,19.98
2022-10-26T17:31:35.360Z,19.97
2022-10-26T17:34:07.078Z,19.96
2022-10-26T17:36:39.595Z,19.94
2022-10-26T17:39:08.904Z,19.91
2022-10-26T17:41:38.955Z,19.88
2022-10-26T17:44:09.483Z,19.84
2022-10-26T17:46:38.852Z,19.82
2022-10-26T17:49:10.393Z,19.78
2022-10-26T17:51:41.092Z,19.75
2022-10-26T17:54:11.371Z,19.71
2022-10-26T17:56:41.272Z,19.68
2022-10-26T17:59:14.002Z,19.65
2022-10-26T18:01:45.201Z,19.65
2022-10-26T18:04:16.748Z,19.65
2022-10-26T18:06:46.999Z,19.64
2022-10-26T18:09:17.043Z,19.61
2022-10-26T18:11:47.937Z,19.62
2022-10-26T18:14:19.617Z,19.61
2022-10-26T18:16:51.351Z,19.63
2022-10-26T18:19:22.579Z,19.64
2022-10-26T18:21:53.170Z,19.65
2022-10-26T18:24:23.525Z,19.64
2022-10-26T18:26:53.788Z,19.65
2022-10-26T18:29:25.478Z,19.64
2022-10-26T18:31:57.312Z,19.63
2022-10-26T18:34:28.872Z,19.61
2022-10-26T18:36:59.862Z,19.61
2022-10-26T18:39:36.930Z,19.59
2022-10-26T18:42:06.691Z,19.55
2022-10-26T18:44:38.798Z,19.51
2022-10-26T18:47:11.018Z,19.47
2022-10-26T18:49:43.569Z,19.44
2022-10-26T18:52:16.245Z,19.42
2022-10-26T18:54:47.213Z,19.40
2022-10-26T18:57:18.902Z,19.38
2022-10-26T18:59:53.929Z,19.37
2022-10-26T19:02:26.498Z,19.37
2022-10-26T19:05:00.841Z,19.36
2022-10-26T19:07:32.027Z,19.34
2022-10-26T19:10:02.739Z,19.33
2022-10-26T19:12:33.680Z,19.32
2022-10-26T19:15:06.907Z,19.31
2022-10-26T19:17:37.730Z,19.33
2022-10-26T19:20:13.670Z,19.31
2022-10-26T19:22:45.369Z,19.36
2022-10-26T19:25:17.849Z,19.38
2022-10-26T19:27:49.132Z,19.42
2022-10-26T19:30:19.964Z,19.43
2022-10-26T19:32:51.398Z,19.45
2022-10-26T19:35:25.485Z,19.46
2022-10-26T19:40:42.087Z,19.48
2022-10-26T19:43:13.164Z,19.50
2022-10-26T19:45:43.247Z,19.50
2022-10-26T19:48:16.153Z,19.48
2022-10-26T19:50:54.896Z,19.48
2022-10-26T19:53:25.282Z,19.49
2022-10-26T19:55:59.175Z,19.49
2022-10-26T19:58:30.963Z,19.53
2022-10-26T20:01:03.010Z,19.53
2022-10-26T20:03:35.106Z,19.55
2022-10-26T20:06:13.206Z,19.56
2022-10-26T20:08:47.666Z,19.56
2022-10-26T20:11:18.549Z,19.58
2022-10-26T20:13:49.640Z,19.58
2022-10-26T20:16:21.543Z,19.57
2022-10-26T20:18:51.746Z,19.60
2022-10-26T20:21:23.153Z,19.59
2022-10-26T20:23:53.392Z,19.60
2022-10-26T20:26:27.457Z,19.60
2022-10-26T20:28:58.974Z,19.61
2022-10-26T20:31:28.773Z,19.60
2022-10-26T20:33:58.719Z,19.61
2022-10-26T20:36:30.562Z,19.59
2022-10-26T20:39:01.518Z,19.60
2022-10-26T20:41:32.121Z,19.59
2022-10-26T20:44:04.028Z,19.61
2022-10-26T20:46:38.661Z,19.62
2022-10-26T20:49:10.818Z,19.64
2022-10-26T20:52:02.740Z,19.67
2022-10-26T20:54:44.381Z,19.67
2022-10-26T20:57:21.485Z,19.69
2022-10-26T20:59:54.206Z,19.71
2022-10-26T21:02:23.634Z,19.73
2022-10-26T21:04:52.292Z,19.72
2022-10-26T21:07:22.208Z,19.71
2022-10-26T21:09:50.603Z,19.68
2022-10-26T21:12:18.992Z,19.63
2022-10-26T21:14:47.393Z,19.57
2022-10-26T21:17:15.783Z,19.54
2022-10-26T21:19:44.204Z,19.49
2022-10-26T21:22:12.733Z,19.44
2022-10-26T21:24:42.489Z,19.39
2022-10-26T21:27:10.914Z,19.35
2022-10-26T21:29:39.280Z,19.31
2022-10-26T21:32:07.706Z,19.31
2022-10-26T21:34:36.090Z,19.31
2022-10-26T21:37:04.469Z,19.33
2022-10-26T21:39:32.889Z,19.36
2022-10-26T21:42:03.003Z,19.38
2022-10-26T21:44:46.611Z,19.39
2022-10-26T21:47:15.153Z,19.41
2022-10-26T21:49:43.625Z,19.42
2022-10-26T21:52:11.992Z,19.42
2022-10-26T21:54:40.362Z,19.39
2022-10-26T21:57:10.190Z,19.35
2022-10-26T21:59:38.580Z,19.29
2022-10-26T22:02:07.101Z,19.21
2022-10-26T22:04:35.821Z,19.14
2022-10-26T22:07:04.201Z,19.08
2022-10-26T22:09:37.360Z,19.00
2022-10-26T22:12:14.727Z,18.92
2022-10-26T22:14:43.080Z,18.85
2022-10-26T22:17:11.474Z,18.79
2022-10-26T22:19:39.834Z,18.73
2022-10-26T22:22:08.205Z,18.69
2022-10-26T22:24:36.571Z,18.63
2022-10-26T22:27:05.127Z,18.60
2022-10-26T22:29:34.933Z,18.55
2022-10-26T22:32:03.513Z,18.52
2022-10-26T22:34:31.909Z,18.49
2022-10-26T22:37:00.327Z,18.46
2022-10-26T22:39:28.655Z,18.43
2022-10-26T22:41:57.101Z,18.41
2022-10-26T22:44:25.937Z,18.39
2022-10-26T22:46:55.686Z,18.37
2022-10-26T22:49:24.031Z,18.35
2022-10-26T22:51:52.520Z,18.34
2022-10-26T22:54:20.889Z,18.31
2022-10-26T22:56:49.265Z,18.29
2022-10-26T22:59:17.595Z,18.28
2022-10-26T23:01:46.183Z,18.25
2022-10-26T23:04:16.222Z,18.23
2022-10-26T23:06:44.662Z,18.21
2022-10-26T23:09:13.045Z,18.19
2022-10-26T23:11:41.402Z,18.16
2022-10-26T23:14:11.187Z,18.15
2022-10-26T23:16:39.524Z,18.11
2022-10-26T23:19:07.881Z,18.09
2022-10-26T23:21:37.594Z,18.06
2022-10-26T23:24:06.810Z,18.04
2022-10-26T23:26:35.173Z,18.03
2022-10-26T23:29:03.533Z,17.99
2022-10-26T23:31:31.931Z,17.96
2022-10-26T23:34:00.284Z,17.95
2022-10-26T23:36:28.633Z,17.92
2022-10-26T23:38:58.675Z,17.89
2022-10-26T23:41:27.035Z,17.87
2022-10-26T23:43:55.362Z,17.85
2022-10-26T23:46:23.764Z,17.83
2022-10-26T23:48:52.178Z,17.82
2022-10-26T23:51:20.530Z,17.78
2022-10-26T23:53:48.902Z,17.77
2022-10-26T23:56:18.637Z,17.75
2022-10-26T23:58:51.263Z,17.72
